Time;durP1;ratioP1;P1;durP2;ratioP2;P2;SDS_P1;SDS_P2;PMS_P1;PMS_P2;Temp;Humidity;BMP_temperature;BMP_pressure;BME280_temperature;BME280_humidity;BME280_pressure;Samples;Min_cycle;Max_cycle;Signal;HPM_P1;HPM_P2
2021/11/21 00:00:32;;;;;;;16.00;3.87;;;;;;;5.72;62.72;99720.82;1769195;80;21167;-58
2021/11/21 00:03:01;;;;;;;15.50;3.45;;;;;;;5.71;62.64;99712.03;1768719;80;20974;-59
2021/11/21 00:05:27;;;;;;;13.43;3.80;;;;;;;5.70;62.49;99707.73;1768607;80;21513;-58
2021/11/21 00:07:54;;;;;;;15.63;4.30;;;;;;;5.67;62.38;99708.62;1768757;81;20903;-59
2021/11/21 00:10:21;;;;;;;13.05;4.25;;;;;;;5.63;62.39;99704.75;1768265;80;21105;-59
2021/11/21 00:12:47;;;;;;;17.37;4.00;;;;;;;5.58;62.44;99701.34;1768932;80;21116;-57
2021/11/21 00:15:14;;;;;;;10.98;3.30;;;;;;;5.51;62.55;99694.70;1767826;81;20990;-58
2021/11/21 00:17:41;;;;;;;18.35;4.58;;;;;;;5.47;62.69;99696.11;1767304;81;20968;-59
2021/11/21 00:20:16;;;;;;;12.53;3.23;;;;;;;5.42;62.85;99695.39;1768648;81;21046;-57
2021/11/21 00:22:39;;;;;;;12.70;3.80;;;;;;;5.39;62.99;99694.98;1764412;80;20992;-59
2021/11/21 00:25:05;;;;;;;17.87;3.95;;;;;;;5.36;63.21;99697.53;1768573;81;21767;-58
2021/11/21 00:27:32;;;;;;;11.43;3.62;;;;;;;5.36;63.37;99697.53;1769148;80;21039;-59
2021/11/21 00:29:59;;;;;;;14.50;3.98;;;;;;;5.38;63.51;99704.78;1767252;81;21548;-59
2021/11/21 00:32:28;;;;;;;13.20;3.87;;;;;;;5.39;63.58;99697.64;1768052;81;20947;-58
2021/11/21 00:34:54;;;;;;;14.18;4.00;;;;;;;5.39;63.64;99702.44;1768542;80;21426;-58
2021/11/21 00:37:21;;;;;;;11.50;3.25;;;;;;;5.39;63.64;99705.62;1768745;80;21109;-59
2021/11/21 00:39:47;;;;;;;14.28;3.80;;;;;;;5.39;63.72;99697.64;1766842;80;20994;-59
2021/11/21 00:42:15;;;;;;;18.92;4.22;;;;;;;5.39;63.69;99693.66;1766411;80;20939;-59
2021/11/21 00:44:43;;;;;;;18.40;3.95;;;;;;;5.38;63.81;99683.52;1768739;80;21055;-60
2021/11/21 00:47:11;;;;;;;17.43;4.87;;;;;;;5.42;63.83;99690.08;1716831;82;20999;-59
2021/11/21 00:49:38;;;;;;;18.82;4.00;;;;;;;5.48;63.74;99687.13;1767474;81;21255;-59
2021/11/21 00:52:06;;;;;;;11.40;3.50;;;;;;;5.55;63.68;99684.47;1716308;82;20995;-58
2021/11/21 00:54:49;;;;;;;12.77;3.63;;;;;;;5.63;63.45;99681.63;1762129;81;21029;-58
2021/11/21 00:57:10;;;;;;;13.43;3.65;;;;;;;5.68;63.29;99681.02;1765105;80;21568;-58
2021/11/21 00:59:37;;;;;;;15.38;3.45;;;;;;;5.71;63.15;99674.80;1768398;80;20971;-58
2021/11/21 01:02:08;;;;;;;15.50;4.22;;;;;;;5.72;63.12;99676.41;1768376;80;21088;-60
2021/11/21 01:04:32;;;;;;;15.05;4.12;;;;;;;5.73;63.03;99679.91;1765710;80;21031;-57
2021/11/21 01:06:58;;;;;;;16.07;4.08;;;;;;;5.72;62.99;99680.92;1768336;81;21391;-58
2021/11/21 01:09:27;;;;;;;17.85;4.85;;;;;;;5.68;63.02;99683.16;1768366;80;20912;-60
2021/11/21 01:11:57;;;;;;;17.92;4.53;;;;;;;5.65;63.04;99686.74;1768611;80;20888;-57
2021/11/21 01:14:24;;;;;;;16.67;4.00;;;;;;;5.62;63.07;99694.61;1765389;81;21149;-61
2021/11/21 01:16:51;;;;;;;17.02;4.37;;;;;;;5.59;63.10;99697.67;1767843;80;20990;-58
2021/11/21 01:19:18;;;;;;;17.90;5.42;;;;;;;5.56;63.14;99700.73;1768625;80;21033;-57
2021/11/21 01:21:44;;;;;;;15.10;4.28;;;;;;;5.54;63.27;99700.13;1768253;80;20904;-58
2021/11/21 01:24:11;;;;;;;14.58;4.25;;;;;;;5.54;63.39;99694.81;1768085;81;21002;-57
2021/11/21 01:26:38;;;;;;;17.02;4.45;;;;;;;5.54;63.47;99690.30;1768765;80;21976;-57
2021/11/21 01:29:05;;;;;;;21.57;4.75;;;;;;;5.55;63.60;99683.14;1768675;80;20962;-58
2021/11/21 01:31:33;;;;;;;14.23;4.30;;;;;;;5.56;63.81;99692.76;1768815;80;21070;-57
2021/11/21 01:33:59;;;;;;;13.75;4.05;;;;;;;5.56;63.98;99679.47;1768202;80;20927;-57
2021/11/21 01:36:26;;;;;;;17.27;4.05;;;;;;;5.59;64.14;99676.40;1765394;81;21438;-58
2021/11/21 01:38:53;;;;;;;13.60;3.98;;;;;;;5.63;64.25;99676.83;1768204;80;21137;-58
2021/11/21 01:41:19;;;;;;;14.90;4.03;;;;;;;5.67;64.43;99673.56;1767057;80;21268;-57
2021/11/21 01:43:47;;;;;;;13.20;4.33;;;;;;;5.72;64.47;99678.27;1768672;80;20958;-58
2021/11/21 01:46:13;;;;;;;15.75;4.75;;;;;;;5.78;64.42;99669.47;1768621;80;21655;-57
2021/11/21 01:48:40;;;;;;;11.63;4.53;;;;;;;5.85;64.37;99672.14;1768372;80;20975;-58
2021/11/21 01:51:08;;;;;;;14.03;4.33;;;;;;;5.89;64.31;99676.84;1765172;81;21139;-58
2021/11/21 01:53:36;;;;;;;12.65;4.20;;;;;;;5.92;64.29;99671.64;1768451;80;20946;-61
2021/11/21 01:56:04;;;;;;;18.10;4.37;;;;;;;5.95;64.34;99675.22;1715588;82;21003;-61
2021/11/21 01:58:31;;;;;;;16.23;4.45;;;;;;;5.98;64.34;99668.19;1767860;80;20974;-58
2021/11/21 02:00:57;;;;;;;17.37;4.62;;;;;;;5.99;64.44;99663.67;1714223;81;21059;-56
2021/11/21 02:03:23;;;;;;;13.62;4.35;;;;;;;6.03;64.52;99655.59;1768255;80;21142;-58
2021/11/21 02:05:51;;;;;;;15.40;5.30;;;;;;;6.06;64.44;99648.00;1768176;81;21008;-57
2021/11/21 02:08:18;;;;;;;14.45;3.40;;;;;;;6.07;64.35;99641.67;1767365;81;21006;-57
2021/11/21 02:10:44;;;;;;;11.80;4.17;;;;;;;6.06;64.39;99642.68;1768437;80;21023;-57
2021/11/21 02:13:11;;;;;;;11.80;4.17;;;;;;;6.09;64.56;99646.26;1768492;80;21035;-56
2021/11/21 02:15:38;;;;;;;16.20;4.53;;;;;;;6.12;64.54;99648.53;1768699;81;21116;-58
2021/11/21 02:18:05;;;;;;;16.90;3.77;;;;;;;6.16;64.62;99653.44;1768514;80;21018;-60
2021/11/21 02:20:40;;;;;;;16.48;4.55;;;;;;;6.17;64.64;99652.39;1768899;80;21721;-59
2021/11/21 02:23:07;;;;;;;14.45;4.35;;;;;;;6.16;64.76;99654.25;1767269;79;20947;-58
2021/11/21 02:25:34;;;;;;;18.40;4.25;;;;;;;6.21;64.93;99657.09;1768912;80;21010;-57
2021/11/21 02:28:02;;;;;;;20.10;4.70;;;;;;;6.26;64.97;99659.16;1768354;80;21207;-57
2021/11/21 02:30:29;;;;;;;17.75;4.55;;;;;;;6.34;65.00;99654.12;1714460;82;21450;-58
2021/11/21 02:32:56;;;;;;;11.88;4.03;;;;;;;6.38;64.91;99651.36;1768390;81;20978;-57
2021/11/21 02:35:23;;;;;;;15.05;5.37;;;;;;;6.42;64.83;99649.40;1768530;80;20963;-57
2021/11/21 02:37:50;;;;;;;16.75;4.58;;;;;;;6.45;64.67;99645.52;1712264;82;20877;-59
2021/11/21 02:40:17;;;;;;;14.55;3.80;;;;;;;6.44;64.62;99640.68;1708688;83;21117;-57
2021/11/21 02:42:43;;;;;;;15.38;4.78;;;;;;;6.45;64.63;99650.84;1767561;80;21089;-57
2021/11/21 02:45:13;;;;;;;14.98;4.05;;;;;;;6.42;64.60;99649.40;1768520;80;20963;-57
2021/11/21 02:47:40;;;;;;;13.50;4.00;;;;;;;6.40;64.61;99644.78;1766283;81;21528;-59
2021/11/21 02:50:18;;;;;;;14.78;4.50;;;;;;;6.39;64.65;99637.84;1768418;80;20990;-57
2021/11/21 02:52:45;;;;;;;12.77;4.40;;;;;;;6.38;64.68;99640.71;1767617;81;21162;-58
2021/11/21 02:55:12;;;;;;;13.80;4.37;;;;;;;6.35;64.74;99636.61;1765949;81;20971;-57
2021/11/21 02:57:38;;;;;;;14.75;4.97;;;;;;;6.33;64.84;99629.85;1768376;80;21031;-58
2021/11/21 03:00:09;;;;;;;13.27;4.47;;;;;;;6.30;65.01;99631.91;1768936;80;20997;-57
2021/11/21 03:02:41;;;;;;;17.95;4.85;;;;;;;6.31;65.20;99620.22;1768778;80;20955;-58
2021/11/21 03:05:07;;;;;;;15.68;4.78;;;;;;;6.33;65.40;99613.88;1768896;80;21130;-57
2021/11/21 03:07:34;;;;;;;14.23;4.50;;;;;;;6.34;65.52;99607.53;1767827;81;21491;-58
2021/11/21 03:10:02;;;;;;;19.92;4.42;;;;;;;6.36;65.57;99613.45;1768071;81;21536;-58
2021/11/21 03:12:29;;;;;;;11.60;3.95;;;;;;;6.38;65.60;99613.56;1768696;80;21006;-58
2021/11/21 03:14:55;;;;;;;12.40;5.05;;;;;;;6.38;65.64;99622.88;1768388;81;21391;-58
2021/11/21 03:17:22;;;;;;;10.82;4.40;;;;;;;6.41;65.67;99621.66;1765333;81;21143;-58
2021/11/21 03:19:50;;;;;;;14.45;5.33;;;;;;;6.40;65.64;99620.01;1769005;80;20880;-58
2021/11/21 03:22:16;;;;;;;17.50;4.92;;;;;;;6.38;65.77;99616.75;1768186;80;20864;-60
2021/11/21 03:24:43;;;;;;;12.47;5.17;;;;;;;6.37;65.92;99614.58;1768568;80;21490;-57
2021/11/21 03:27:10;;;;;;;16.55;4.53;;;;;;;6.36;66.22;99616.95;1767750;81;20927;-58
2021/11/21 03:29:37;;;;;;;18.02;5.47;;;;;;;6.35;66.44;99614.50;1768324;80;21134;-57
2021/11/21 03:32:05;;;;;;;14.33;5.25;;;;;;;6.38;66.60;99616.22;1768738;80;21533;-58
2021/11/21 03:34:32;;;;;;;12.82;4.85;;;;;;;6.40;66.68;99620.01;1765869;81;21101;-60
2021/11/21 03:36:58;;;;;;;14.07;5.25;;;;;;;6.40;66.69;99628.80;1768996;80;21011;-57
2021/11/21 03:39:25;;;;;;;13.75;5.20;;;;;;;6.41;66.67;99615.00;1768307;80;21413;-57
2021/11/21 03:41:52;;;;;;;19.00;5.25;;;;;;;6.38;66.72;99614.09;1768103;80;21087;-57
2021/11/21 03:44:18;;;;;;;16.85;4.95;;;;;;;6.35;66.71;99615.84;1768569;80;20983;-58
2021/11/21 03:46:45;;;;;;;14.85;5.00;;;;;;;6.32;66.74;99618.39;1768530;80;21560;-57
2021/11/21 03:49:12;;;;;;;14.68;4.83;;;;;;;6.28;66.76;99611.32;1768811;80;21687;-57
2021/11/21 03:51:38;;;;;;;15.95;4.65;;;;;;;6.25;66.86;99613.59;1768784;80;20912;-58
2021/11/21 03:54:05;;;;;;;14.98;4.62;;;;;;;6.21;66.96;99603.05;1761782;81;21954;-58
2021/11/21 03:56:31;;;;;;;14.28;4.87;;;;;;;6.21;67.09;99606.52;1768867;81;20967;-59
2021/11/21 03:58:58;;;;;;;12.58;4.42;;;;;;;6.20;67.23;99603.58;1768344;81;20994;-57
2021/11/21 04:01:24;;;;;;;13.55;4.72;;;;;;;6.20;67.39;99596.92;1768347;80;21027;-58
2021/11/21 04:03:51;;;;;;;12.10;4.22;;;;;;;6.21;67.53;99585.23;1769160;80;21041;-57
2021/11/21 04:06:18;;;;;;;19.12;5.90;;;;;;;6.21;67.56;99594.55;1768449;80;21150;-58
2021/11/21 04:08:45;;;;;;;19.57;6.55;;;;;;;6.18;67.72;99592.30;1768750;80;20976;-57
2021/11/21 04:11:12;;;;;;;16.05;5.67;;;;;;;6.17;67.90;99590.69;1768831;80;21498;-58
2021/11/21 04:13:39;;;;;;;11.12;4.80;;;;;;;6.17;68.00;99589.36;1768481;80;20976;-58
2021/11/21 04:16:06;;;;;;;13.53;5.47;;;;;;;6.18;68.12;99583.52;1768649;80;20995;-58
2021/11/21 04:18:33;;;;;;;10.32;5.03;;;;;;;6.20;68.21;99585.44;1764345;80;21143;-60
2021/11/21 04:21:01;;;;;;;13.40;5.28;;;;;;;6.23;68.33;99583.20;1768314;81;20968;-58
2021/11/21 04:23:30;;;;;;;14.75;5.15;;;;;;;6.28;68.37;99586.56;1768158;81;21019;-57
2021/11/21 04:25:57;;;;;;;14.73;5.85;;;;;;;6.30;68.42;99594.64;1768404;80;21050;-58
2021/11/21 04:28:25;;;;;;;12.15;5.72;;;;;;;6.32;68.44;99582.45;1768635;80;35861;-59
2021/11/21 04:30:53;;;;;;;15.18;6.30;;;;;;;6.33;68.48;99596.08;1768488;80;21127;-59
2021/11/21 04:33:21;;;;;;;15.45;5.65;;;;;;;6.30;68.58;99587.98;1768450;80;20990;-57
2021/11/21 04:35:49;;;;;;;16.20;5.62;;;;;;;6.30;68.70;99587.98;1768648;80;21494;-57
2021/11/21 04:38:17;;;;;;;15.05;6.58;;;;;;;6.30;68.82;99585.33;1763071;81;20986;-58
2021/11/21 04:40:44;;;;;;;13.08;5.97;;;;;;;6.33;68.94;99584.10;1713453;82;21016;-57
2021/11/21 04:43:11;;;;;;;19.90;7.05;;;;;;;6.38;68.93;99579.48;1767350;80;21135;-58
2021/11/21 04:45:38;;;;;;;13.65;5.80;;;;;;;6.43;68.98;99591.14;1768639;80;20979;-58
2021/11/21 04:48:05;;;;;;;13.85;6.37;;;;;;;6.47;69.07;99588.86;1768714;81;21419;-58
2021/11/21 04:50:32;;;;;;;16.45;6.03;;;;;;;6.52;69.09;99586.89;1768701;80;20974;-58
2021/11/21 04:52:59;;;;;;;13.53;5.65;;;;;;;6.56;69.11;99579.59;1764308;81;22172;-57
2021/11/21 04:55:26;;;;;;;17.77;5.95;;;;;;;6.60;69.08;99584.01;1767823;80;21134;-59
2021/11/21 04:57:54;;;;;;;13.20;6.25;;;;;;;6.60;69.10;99582.15;1768806;81;20963;-57
2021/11/21 05:00:20;;;;;;;12.58;6.30;;;;;;;6.63;69.14;99586.25;1768324;80;21521;-57
2021/11/21 05:02:48;;;;;;;16.35;6.20;;;;;;;6.64;69.15;99578.04;1768428;81;21014;-57
2021/11/21 05:05:16;;;;;;;12.33;6.50;;;;;;;6.66;69.17;99570.64;1768598;80;20951;-59
2021/11/21 05:07:42;;;;;;;17.32;6.97;;;;;;;6.69;69.18;99564.08;1768459;80;21113;-57
2021/11/21 05:10:09;;;;;;;18.48;7.20;;;;;;;6.72;69.24;99556.19;1768543;80;20932;-57
2021/11/21 05:12:38;;;;;;;14.33;6.67;;;;;;;6.76;69.24;99560.07;1767256;81;21514;-59
2021/11/21 05:15:07;;;;;;;14.50;7.33;;;;;;;6.78;69.22;99564.13;1768440;81;21018;-60
2021/11/21 05:17:34;;;;;;;18.00;7.30;;;;;;;6.80;69.22;99567.42;1768427;81;21006;-57
2021/11/21 05:20:01;;;;;;;20.77;7.50;;;;;;;6.81;69.22;99559.70;1768414;81;21080;-57
2021/11/21 05:22:28;;;;;;;14.43;7.10;;;;;;;6.83;69.23;99556.34;1762982;81;21498;-59
2021/11/21 05:24:55;;;;;;;11.95;7.12;;;;;;;6.86;69.23;99552.93;1768341;80;20975;-58
2021/11/21 05:27:23;;;;;;;13.72;7.33;;;;;;;6.87;69.30;99558.05;1768595;80;20923;-57
2021/11/21 05:29:52;;;;;;;15.10;6.83;;;;;;;6.89;69.30;99563.16;1768379;80;21109;-58
2021/11/21 05:32:19;;;;;;;11.73;6.33;;;;;;;6.95;69.37;99563.63;1769096;80;21069;-58
2021/11/21 05:34:45;;;;;;;12.47;7.60;;;;;;;6.98;69.42;99565.90;1765132;79;21525;-57
2021/11/21 05:37:13;;;;;;;15.30;7.65;;;;;;;7.03;69.57;99567.91;1768651;80;20979;-59
2021/11/21 05:39:40;;;;;;;14.58;8.35;;;;;;;7.06;69.72;99562.16;1765453;80;21026;-60
2021/11/21 05:42:07;;;;;;;15.32;7.83;;;;;;;7.05;69.94;99569.84;1768721;81;21478;-59
2021/11/21 05:44:34;;;;;;;13.80;7.95;;;;;;;7.06;70.24;99565.63;1768833;80;21129;-57
2021/11/21 05:47:01;;;;;;;15.10;8.33;;;;;;;7.09;70.41;99576.38;1768754;80;21535;-58
2021/11/21 05:49:28;;;;;;;14.78;7.90;;;;;;;7.14;70.53;99568.55;1767698;80;20904;-58
2021/11/21 05:51:54;;;;;;;14.75;8.83;;;;;;;7.19;70.68;99572.20;1768697;81;21509;-57
2021/11/21 05:54:21;;;;;;;14.98;8.10;;;;;;;7.24;70.79;99566.22;1768284;81;20967;-57
2021/11/21 05:56:48;;;;;;;14.35;8.75;;;;;;;7.28;70.81;99563.43;1768799;81;21137;-57
2021/11/21 05:59:14;;;;;;;16.23;9.08;;;;;;;7.32;70.81;99558.50;1768691;79;21485;-58
2021/11/21 06:01:40;;;;;;;15.53;8.85;;;;;;;7.35;70.77;99552.20;1768904;81;21022;-59
2021/11/21 06:04:07;;;;;;;18.17;8.93;;;;;;;7.41;70.77;99549.19;1768911;80;20940;-59
2021/11/21 06:06:34;;;;;;;19.00;9.28;;;;;;;7.45;70.77;99554.89;1767366;81;21207;-59
2021/11/21 06:09:02;;;;;;;15.15;8.90;;;;;;;7.45;70.75;99553.56;1768510;81;21230;-59
2021/11/21 06:11:29;;;;;;;17.05;9.25;;;;;;;7.48;70.89;99553.13;1768606;81;21489;-60
2021/11/21 06:13:56;;;;;;;16.82;9.83;;;;;;;7.53;70.99;99555.44;1764152;81;21095;-57
2021/11/21 06:16:23;;;;;;;15.75;8.98;;;;;;;7.57;71.05;99545.17;1768765;80;20916;-58
2021/11/21 06:18:49;;;;;;;14.55;9.23;;;;;;;7.62;71.12;99555.17;1768681;80;21418;-59
2021/11/21 06:21:16;;;;;;;18.70;9.28;;;;;;;7.63;71.09;99557.63;1765649;81;21133;-58
2021/11/21 06:23:43;;;;;;;14.75;9.33;;;;;;;7.65;71.15;99550.73;1768569;81;20936;-59
2021/11/21 06:26:09;;;;;;;15.95;9.28;;;;;;;7.67;71.20;99556.16;1768930;81;20927;-59
2021/11/21 06:28:36;;;;;;;12.65;8.95;;;;;;;7.71;71.25;99563.20;1768607;80;21090;-59
2021/11/21 06:31:03;;;;;;;15.40;9.40;;;;;;;7.74;71.28;99561.95;1768802;81;21019;-59
2021/11/21 06:33:30;;;;;;;16.70;9.65;;;;;;;7.76;71.28;99561.20;1768679;79;21088;-61
2021/11/21 06:35:56;;;;;;;18.98;9.68;;;;;;;7.79;71.33;99568.77;1769109;81;21034;-58
2021/11/21 06:38:23;;;;;;;18.10;9.78;;;;;;;7.79;71.36;99564.27;1768992;81;21057;-58
2021/11/21 06:40:49;;;;;;;15.70;10.23;;;;;;;7.78;71.44;99564.48;1765968;81;20999;-58
2021/11/21 06:43:16;;;;;;;19.12;10.75;;;;;;;7.81;71.47;99566.19;1763831;81;21058;-58
2021/11/21 06:45:44;;;;;;;17.17;10.80;;;;;;;7.83;71.54;99561.96;1763680;81;21297;-57
2021/11/21 06:48:12;;;;;;;18.07;10.35;;;;;;;7.84;71.68;99556.41;1763367;81;22216;-60
2021/11/21 06:50:39;;;;;;;17.65;10.28;;;;;;;7.89;71.75;99557.91;1764151;81;21026;-58
2021/11/21 06:53:06;;;;;;;22.27;11.55;;;;;;;7.95;71.82;99556.72;1763606;81;21051;-58
2021/11/21 06:55:32;;;;;;;16.85;10.50;;;;;;;8.03;71.88;99554.58;1763809;81;21785;-58
2021/11/21 06:57:59;;;;;;;19.45;11.00;;;;;;;8.11;71.84;99550.80;1763642;81;21147;-58
2021/11/21 07:00:26;;;;;;;16.00;10.58;;;;;;;8.21;71.80;99554.30;1763713;80;20868;-61
2021/11/21 07:02:53;;;;;;;18.27;10.32;;;;;;;8.31;71.67;99555.12;1763475;81;21585;-58
2021/11/21 07:05:19;;;;;;;16.05;9.93;;;;;;;8.39;71.33;99551.63;1763690;81;20944;-57
2021/11/21 07:07:47;;;;;;;14.35;10.03;;;;;;;8.43;71.07;99550.66;1761240;81;21105;-58
2021/11/21 07:10:13;;;;;;;17.45;10.43;;;;;;;8.43;70.85;99550.66;1763597;81;21077;-58
2021/11/21 07:12:41;;;;;;;15.60;9.93;;;;;;;8.44;70.87;99544.81;1764129;80;21509;-58
2021/11/21 07:15:09;;;;;;;16.82;10.48;;;;;;;8.45;70.87;99532.59;1763945;81;21549;-59
2021/11/21 07:17:35;;;;;;;16.97;10.48;;;;;;;8.47;70.83;99540.39;1763479;81;20951;-59
2021/11/21 07:20:04;;;;;;;17.32;9.60;;;;;;;8.46;70.87;99539.55;1763694;81;21536;-59
2021/11/21 07:22:32;;;;;;;15.40;10.32;;;;;;;8.52;70.90;99540.52;1760633;81;21724;-59
2021/11/21 07:24:59;;;;;;;15.63;9.98;;;;;;;8.56;70.76;99549.19;1760333;81;20888;-58
2021/11/21 07:27:26;;;;;;;17.10;10.20;;;;;;;8.57;70.64;99550.83;1763646;81;21514;-57
2021/11/21 07:29:53;;;;;;;15.05;10.20;;;;;;;8.62;70.56;99556.83;1763389;81;20959;-59
2021/11/21 07:32:19;;;;;;;16.65;10.75;;;;;;;8.66;70.45;99560.69;1764098;81;21051;-59
2021/11/21 07:34:47;;;;;;;16.80;9.10;;;;;;;8.70;70.35;99547.17;1763628;81;21529;-59
2021/11/21 07:37:14;;;;;;;15.72;9.73;;;;;;;8.75;70.27;99548.64;1763867;81;21182;-59
2021/11/21 07:39:40;;;;;;;14.73;9.90;;;;;;;8.79;70.11;99554.86;1763494;81;21058;-58
2021/11/21 07:42:07;;;;;;;16.52;9.95;;;;;;;8.83;69.98;99548.84;1768384;80;21042;-60
2021/11/21 07:44:35;;;;;;;14.10;9.20;;;;;;;8.86;69.82;99549.75;1768780;80;21035;-59
2021/11/21 07:47:02;;;;;;;18.48;9.90;;;;;;;8.90;69.66;99551.43;1768936;80;21117;-59
2021/11/21 07:49:29;;;;;;;16.95;9.58;;;;;;;8.95;69.61;99555.56;1769245;80;21033;-59
2021/11/21 07:51:55;;;;;;;17.70;10.35;;;;;;;9.00;69.37;99553.56;1768778;80;21477;-57
2021/11/21 07:54:22;;;;;;;15.58;9.48;;;;;;;9.01;69.18;99547.99;1769212;80;21107;-58
2021/11/21 07:56:48;;;;;;;15.32;10.00;;;;;;;9.03;69.13;99551.77;1768584;81;20928;-59
2021/11/21 07:59:14;;;;;;;15.23;10.03;;;;;;;9.02;69.15;99538.10;1768773;81;21109;-60
2021/11/21 08:01:42;;;;;;;16.30;9.75;;;;;;;9.05;69.12;99548.34;1768616;81;21069;-60
2021/11/21 08:04:10;;;;;;;15.68;9.18;;;;;;;9.08;69.12;99547.38;1769011;81;20920;-59
2021/11/21 08:06:37;;;;;;;15.45;9.90;;;;;;;9.16;69.05;99546.73;1764838;81;21093;-58
2021/11/21 08:09:04;;;;;;;13.65;9.58;;;;;;;9.26;68.99;99538.46;1768732;81;21094;-57
2021/11/21 08:11:31;;;;;;;13.70;9.05;;;;;;;9.43;68.79;99533.24;1768652;81;21359;-60
2021/11/21 08:13:59;;;;;;;18.95;10.58;;;;;;;9.60;68.42;99537.94;1769006;81;20954;-60
2021/11/21 08:16:26;;;;;;;15.63;9.70;;;;;;;9.71;68.04;99529.61;1768691;81;20959;-58
2021/11/21 08:18:52;;;;;;;14.30;9.63;;;;;;;9.76;67.80;99543.09;1768837;81;20963;-58
2021/11/21 08:21:19;;;;;;;20.10;9.85;;;;;;;9.79;67.57;99535.43;1768769;80;20982;-59
2021/11/21 08:23:45;;;;;;;15.45;10.55;;;;;;;9.80;67.31;99544.27;1769290;81;21783;-59
2021/11/21 08:26:12;;;;;;;14.10;9.98;;;;;;;9.79;67.14;99534.59;1768352;81;20994;-59
2021/11/21 08:28:39;;;;;;;16.17;9.70;;;;;;;9.75;67.22;99544.16;1768751;81;21002;-59
2021/11/21 08:31:07;;;;;;;15.10;10.08;;;;;;;9.69;67.23;99532.52;1768563;81;21039;-60
2021/11/21 08:33:33;;;;;;;14.35;10.05;;;;;;;9.63;67.37;99532.92;1767151;81;20986;-58
2021/11/21 08:36:00;;;;;;;17.55;10.45;;;;;;;9.57;67.63;99528.50;1769020;79;21147;-58
2021/11/21 08:38:27;;;;;;;20.43;10.35;;;;;;;9.53;67.84;99528.67;1764712;81;21619;-58
2021/11/21 08:40:54;;;;;;;18.65;10.45;;;;;;;9.52;68.01;99524.89;1768721;80;20959;-59
2021/11/21 08:43:21;;;;;;;14.45;9.63;;;;;;;9.54;68.17;99524.12;1768733;80;21102;-57
2021/11/21 08:45:48;;;;;;;15.72;9.70;;;;;;;9.58;68.28;99523.42;1766955;81;20923;-59
2021/11/21 08:48:14;;;;;;;16.77;10.30;;;;;;;9.63;68.24;99532.92;1768972;80;21808;-59
2021/11/21 08:50:41;;;;;;;13.55;9.53;;;;;;;9.64;68.30;99526.53;1768352;81;21611;-59
2021/11/21 08:53:08;;;;;;;14.28;9.63;;;;;;;9.62;68.27;99523.25;1768421;79;20987;-57
2021/11/21 08:55:34;;;;;;;15.90;10.38;;;;;;;9.61;68.33;99518.97;1768650;80;20988;-58
2021/11/21 08:58:04;;;;;;;15.00;9.93;;;;;;;9.64;68.42;99517.67;1768466;81;21238;-58
2021/11/21 09:00:30;;;;;;;17.17;10.18;;;;;;;9.66;68.54;99518.27;1763213;80;21113;-59
2021/11/21 09:02:57;;;;;;;16.15;9.95;;;;;;;9.68;68.56;99519.38;1763367;80;21031;-59
2021/11/21 09:05:23;;;;;;;14.18;9.65;;;;;;;9.68;68.66;99512.15;1762892;81;20927;-58
2021/11/21 09:07:50;;;;;;;12.65;8.88;;;;;;;9.73;68.73;99508.27;1765042;81;20991;-60
2021/11/21 09:10:18;;;;;;;15.68;8.95;;;;;;;9.80;68.73;99510.80;1768683;81;21439;-59
2021/11/21 09:12:45;;;;;;;15.15;10.13;;;;;;;9.87;68.60;99501.33;1768443;81;21114;-59
2021/11/21 09:15:16;;;;;;;14.13;9.88;;;;;;;9.93;68.43;99495.83;1768593;81;21540;-59
2021/11/21 09:17:45;;;;;;;15.70;10.35;;;;;;;10.00;68.15;99498.40;1768394;81;21035;-61
2021/11/21 09:20:13;;;;;;;15.68;10.43;;;;;;;10.04;67.98;99495.55;1768196;80;21000;-63
2021/11/21 09:22:39;;;;;;;14.13;10.50;;;;;;;10.10;67.83;99493.26;1768261;81;21067;-58
2021/11/21 09:25:07;;;;;;;16.20;10.80;;;;;;;10.13;67.56;99500.02;1768709;81;21059;-58
2021/11/21 09:27:35;;;;;;;13.88;8.95;;;;;;;10.15;67.48;99504.06;1763216;81;21036;-59
2021/11/21 09:30:04;;;;;;;15.05;8.58;;;;;;;10.16;67.52;99494.98;1768554;81;21640;-59
2021/11/21 09:32:32;;;;;;;13.00;9.05;;;;;;;10.17;67.48;99494.45;1764877;81;20959;-59
2021/11/21 09:34:59;;;;;;;13.83;8.50;;;;;;;10.15;67.53;99493.34;1769222;81;21027;-58
2021/11/21 09:37:26;;;;;;;14.28;9.15;;;;;;;10.12;67.24;99497.04;1768498;81;21125;-60
2021/11/21 09:39:52;;;;;;;13.38;8.10;;;;;;;10.07;67.10;99499.09;1768561;81;21054;-59
2021/11/21 09:42:19;;;;;;;11.33;7.65;;;;;;;10.03;67.08;99493.91;1763943;81;20928;-59
2021/11/21 09:44:46;;;;;;;14.00;7.67;;;;;;;10.01;66.93;99491.97;1767936;80;21044;-59
2021/11/21 09:47:13;;;;;;;11.90;7.87;;;;;;;9.98;66.93;99489.77;1768574;81;20987;-60
2021/11/21 09:49:41;;;;;;;11.57;8.00;;;;;;;9.95;66.92;99492.41;1767957;81;21111;-59
2021/11/21 09:52:08;;;;;;;11.08;7.70;;;;;;;9.94;66.90;99491.31;1768572;80;21066;-60
2021/11/21 09:54:35;;;;;;;17.65;8.45;;;;;;;9.89;66.91;99487.98;1768465;80;21034;-60
2021/11/21 09:57:02;;;;;;;18.00;8.63;;;;;;;9.86;67.01;99495.67;1767932;80;21027;-61
2021/11/21 09:59:58;;;;;;;12.20;7.97;;;;;;;9.85;67.07;99493.53;1768867;81;21030;-63
2021/11/21 10:02:32;;;;;;;14.03;7.30;;;;;;;9.86;67.00;99493.00;1767824;81;21165;-58
2021/11/21 10:05:08;;;;;;;9.53;7.08;;;;;;;9.86;66.94;99492.46;1767045;80;20868;-59
2021/11/21 10:07:36;;;;;;;16.67;8.78;;;;;;;9.89;66.96;99486.64;1761255;81;21500;-60
2021/11/21 10:10:10;;;;;;;11.65;7.33;;;;;;;9.90;66.91;99484.26;1768937;80;21066;-59
2021/11/21 10:12:38;;;;;;;15.08;7.90;;;;;;;9.94;66.64;99488.10;1769205;80;21106;-62
2021/11/21 10:15:13;;;;;;;12.28;7.60;;;;;;;9.94;66.55;99489.97;1768633;80;21144;-60
2021/11/21 10:17:46;;;;;;;13.70;7.47;;;;;;;9.95;66.46;99487.06;1767902;81;21011;-58
2021/11/21 10:20:22;;;;;;;12.00;7.62;;;;;;;9.95;66.37;99493.75;1768643;79;20998;-62
2021/11/21 10:23:02;;;;;;;12.58;8.20;;;;;;;9.94;66.42;99492.66;1768456;80;21046;-61
2021/11/21 10:25:40;;;;;;;11.25;7.05;;;;;;;9.94;66.26;99489.44;1768765;81;21044;-63
2021/11/21 10:28:24;;;;;;;10.60;7.33;;;;;;;9.97;66.34;99490.30;1768446;80;21055;-61
2021/11/21 10:31:14;;;;;;;10.65;7.40;;;;;;;9.99;66.29;99488.19;1768124;80;20982;-59
2021/11/21 10:33:51;;;;;;;11.90;8.33;;;;;;;9.99;66.32;99488.73;1768216;80;20991;-60
2021/11/21 10:36:28;;;;;;;10.72;7.25;;;;;;;10.00;66.21;99487.16;1769002;80;21017;-59
2021/11/21 10:38:57;;;;;;;9.98;7.00;;;;;;;10.04;66.16;99477.31;1767351;81;21132;-61
2021/11/21 10:41:32;;;;;;;10.85;6.72;;;;;;;10.07;66.05;99478.17;1766651;80;21093;-60
2021/11/21 10:44:08;;;;;;;9.75;7.37;;;;;;;10.08;65.97;99467.76;1762776;81;20892;-58
2021/11/21 10:46:43;;;;;;;10.65;7.28;;;;;;;10.09;66.00;99470.73;1763676;81;21098;-58
2021/11/21 10:49:33;;;;;;;14.73;7.95;;;;;;;10.09;65.86;99471.53;1760575;81;21066;-62
2021/11/21 10:52:10;;;;;;;13.53;6.78;;;;;;;10.05;65.59;99468.23;1762257;81;21102;-58
2021/11/21 10:54:59;;;;;;;10.25;6.67;;;;;;;10.04;65.54;99462.58;1763871;81;21099;-59
2021/11/21 10:57:30;;;;;;;12.15;8.25;;;;;;;10.05;65.48;99462.34;1761664;81;20975;-58
2021/11/21 11:00:04;;;;;;;14.70;8.25;;;;;;;10.06;65.34;99460.50;1762568;81;20903;-59
2021/11/21 11:02:43;;;;;;;10.70;7.35;;;;;;;10.10;65.48;99461.63;1761941;81;21132;-60
2021/11/21 11:05:14;;;;;;;13.32;6.92;;;;;;;10.15;65.41;99459.06;1761950;81;20935;-59
2021/11/21 11:07:49;;;;;;;10.60;7.22;;;;;;;10.20;65.41;99458.35;1762538;81;21105;-61
2021/11/21 11:10:31;;;;;;;14.50;7.53;;;;;;;10.24;65.37;99444.78;1761079;81;21450;-62
2021/11/21 11:13:05;;;;;;;12.18;7.75;;;;;;;10.26;65.35;99445.34;1761135;81;21522;-60
2021/11/21 11:15:37;;;;;;;13.75;7.30;;;;;;;10.29;65.20;99442.18;1762866;81;20998;-58
2021/11/21 11:18:06;;;;;;;12.28;6.65;;;;;;;10.28;65.05;99440.58;1763781;81;21038;-60
2021/11/21 11:20:45;;;;;;;15.63;8.03;;;;;;;10.26;64.97;99439.48;1760104;81;21124;-59
2021/11/21 11:23:13;;;;;;;;;;;;;;;10.24;64.79;99438.88;1762987;81;21043;-60
2021/11/21 11:25:43;;;;;;;14.33;7.35;;;;;;;10.23;64.69;99438.62;1762574;81;20172;-59
2021/11/21 11:28:35;;;;;;;12.78;7.50;;;;;;;10.20;64.86;99440.94;1763831;81;21053;-58
2021/11/21 11:31:20;;;;;;;10.65;6.70;;;;;;;10.19;64.82;99440.14;1762504;81;22172;-58
2021/11/21 11:33:51;;;;;;;12.50;7.28;;;;;;;10.17;64.93;99444.91;1745519;80;21205;-58
2021/11/21 11:36:25;;;;;;;12.33;7.25;;;;;;;10.14;64.87;99452.91;1763890;81;21086;-60